Newburg, MD

4:35 PM EDT on August 31, 2015 (GMT -0400)
Notley Hall Farm | | Change Station
CLOSE
Current Station
Personal Weather Station
Location: Chaptico, MD
Elevation: 20 ft
Nearby Weather Stations

Elev 20 ft 38.31 °N, 76.82 °W | Updated 4 seconds ago

Partly Cloudy
Partly Cloudy
88.4 °F
Feels Like 95 °F
N
1.0
Wind Variable Wind from WSW
Gusts 2.0 mph

Today
High -- | Low -- °F
--% Chance of Precip.
Yesterday
High -- | Low -- °F
Precip. -- in
6:36 AM 7:39 PM
Waning Gibbous, 94% visible
Pressure 30.06 in
Visibility 10.0 miles
Clouds Few 8000 ft
Few 16000 ft
Heat Index 95 °F
Dew Point 71 °F
Humidity 57%
Rainfall 0.00 in
Snow Depth Not available.
UV 5 out of 12
Pollen 10.30 out of 12
Air Quality Not available.
Flu Activity Not available.
METAR KNYG 311956Z 17007KT 10SM FEW080 FEW160 29/21 A3006 RMK AO2 SLP180 T02890211
Pressure 30.06 in
Visibility 10.0 miles
Clouds Few 8000 ft
Few 16000 ft
Heat Index 95 °F
Dew Point 71 °F
Humidity 57%
Rainfall 0.00 in
Snow Depth Not available.
UV 5 out of 12
Pollen 10.30 out of 12
Air Quality Not available.
Flu Activity Not available.
METAR KNYG 311956Z 17007KT 10SM FEW080 FEW160 29/21 A3006 RMK AO2 SLP180 T02890211

10-Day Weather Forecast

×

Almanac

Astronomy

Aug. 31, 2015 Rise Set
Actual Time
Civil Twilight
Nautical Twilight
Astronomical Twilight
Moon
Length of Visible Light
Length of Day
Tomorrow will be .
, % of the Moon is Illuminated

Today's Extremes

State Highs State Lows

Community

WunderPhotos

Upload Photos

1,851,357 photos uploaded!

WunderBlogs® & News

Nearby

Air Quality

  Air Quality AQ Index Pollutant
Not available.

Snow Depth

Station Depth Elevation

Earthquake Activity

City Distance Mag. Time & Date
Minimum magnitude displayed is 2.5.

Coastal Water Temperatures

Place Temperature

Stations

Nearby Weather Stations

Station Location Temp. Windchill Dew Point Humidity Wind Precip. Elev Updated Type